Aérodrome :
LOGIN :

S'inscrire | Disclaimer

   EN    FR    IT 

 










Légende :    VFR   VFR Marginal   IFR   IFR Intensif   IFR Très Intensif
Visi : 
Plafond : 
>= 8 km
>= 3000ft
5 à 8 km
1000 à 3000 ft
1500m à 5 km
500 à 1000 ft
800 à 1500m
200 à 500 ft
< 800m
< 200 ft
Symboles :   Orages  Brouillard  Fortes neiges  Fortes précipitations  Vent > 20 kt
SIGMETs :   Divers  Orages  Givrage  Turbulence  Onde Orograph.  Cendres Volcan.






- Altitude de l'aérodrome : 63 ft
- Code IATA : BZM


EHWO - Woensdrecht Airbase

DERNIER METAR :
  • 180555Z AUTO 22008KT 9999 FEW032 05/02 Q1020 BLU

METARs EXPIRÉS :
  • 180525Z AUTO 22011KT 200V260 9999 NCD 05/02 Q1020 BLU
  • 180455Z AUTO 22010KT 200V260 9999 SCT030 05/02 Q1019 BLU
  • 180435Z AUTO 22009KT 190V260 9999 FEW024 BKN027 BKN030 05/02 Q1019 BLU
  • 180431Z AUTO 22010KT 190V260 9999 SCT024 BKN028 05/02 Q1019 WHT
  • 180355Z AUTO 23010KT 200V260 9999 NCD 05/02 Q1019 BLU
  • 180325Z AUTO 23009KT 200V260 9999 FEW023 06/03 Q1019 BLU
  • 180308Z AUTO 24011KT 9999 SCT024 BKN029 06/03 Q1019 WHT

TAF TAF EHWO
Valide du 18 à 06h jusqu'au 18 à 18h UTC


180510Z 1806/1818 22010KT 9999 SCT024
PROB30
TEMPO 1806/1814 25015G28KT 4500 SHRA FEW008 SCT018CB
BECMG 1809/1812 2501525KT
TEMPO 1814/1818 25015G30KT 4500 SHRA FEW008 SCT018CB
PROB30
TEMPO 1816/1818 3000 TSRAGS SCT008 SCT016CB



MET'MAP, la Météo Aéronautique d'un coup d'oeil ! - Copyright ORBIFLY Décembre 2007 - Disclaimer

ORBIFLY MET'MAP TEAM :

Programmation & Développement : Alexandra Zaïnal
Sur une idée originale de : Baudouin d'Aumeries
Assistance à la programmation : Marc-Olivier Méhu
Soutien technique & logistique : Manuel Goepfert

Contact : metmap@orbifly.com




SOURCES & CREDITS :

   NOAA